Time;durP1;ratioP1;P1;durP2;ratioP2;P2;SDS_P1;SDS_P2;PMS_P1;PMS_P2;Temp;Humidity;BMP_temperature;BMP_pressure;BME280_temperature;BME280_humidity;BME280_pressure;Samples;Min_cycle;Max_cycle;Signal;HPM_P1;HPM_P2
2022/10/08 00:01:39;;;;;;;5.28;3.80;;;;;;;15.19;44.90;100187.19;5092133;28;20043;-81
2022/10/08 00:04:04;;;;;;;6.93;4.00;;;;;;;14.94;44.87;100162.84;5093212;28;20035;-81
2022/10/08 00:06:31;;;;;;;8.88;4.55;;;;;;;15.38;45.21;100239.75;5092832;28;20091;-81
2022/10/08 00:09:04;;;;;;;5.15;3.83;;;;;;;15.10;45.38;100193.66;5092570;28;20024;-81
2022/10/08 00:11:33;;;;;;;4.45;3.80;;;;;;;15.38;45.69;100249.56;5092694;28;20043;-81
2022/10/08 00:14:00;;;;;;;7.00;3.95;;;;;;;14.66;45.59;100128.22;5092652;28;20584;-81
2022/10/08 00:16:26;;;;;;;5.50;3.70;;;;;;;15.18;45.82;100236.91;5091381;28;20016;-81
2022/10/08 00:18:54;;;;;;;5.00;3.95;;;;;;;14.58;45.98;100152.25;5091424;28;20504;-81
2022/10/08 00:21:25;;;;;;;8.20;4.40;;;;;;;14.78;45.85;100174.53;5092710;28;20443;-81
2022/10/08 00:23:51;;;;;;;7.38;4.35;;;;;;;15.07;46.16;100220.66;5091213;28;20024;-81
2022/10/08 00:26:22;;;;;;;6.22;3.92;;;;;;;15.12;45.96;100226.22;5092607;28;20082;-81
2022/10/08 00:28:48;;;;;;;5.53;4.80;;;;;;;14.29;45.76;100126.56;5091259;28;20024;-81
2022/10/08 00:31:18;;;;;;;4.60;4.13;;;;;;;15.13;46.15;100217.22;5091871;28;20047;-81
2022/10/08 00:33:47;;;;;;;6.72;4.25;;;;;;;15.16;45.89;100208.84;5090975;28;20082;-81
2022/10/08 00:36:13;;;;;;;4.60;3.97;;;;;;;14.66;46.11;100124.72;5092533;28;20709;-82
2022/10/08 00:38:38;;;;;;;5.93;4.30;;;;;;;14.24;45.80;100038.66;5092484;28;20024;-81
2022/10/08 00:41:07;;;;;;;5.93;3.83;;;;;;;15.35;45.89;100215.34;5092290;28;20095;-82
2022/10/08 00:43:42;;;;;;;6.13;4.13;;;;;;;15.34;45.66;100208.41;5092479;28;20024;-82
2022/10/08 00:46:48;;;;;;;8.20;4.85;;;;;;;15.30;45.94;100204.47;5090812;28;20024;-82
2022/10/08 00:49:17;;;;;;;6.05;4.35;;;;;;;15.25;45.65;100197.88;5091427;28;20058;-82
2022/10/08 00:51:48;;;;;;;4.75;4.20;;;;;;;15.23;46.05;100199.09;5090698;28;20073;-82
2022/10/08 00:54:16;;;;;;;9.38;4.88;;;;;;;15.16;46.18;100204.38;5090767;28;20500;-82
2022/10/08 00:56:43;;;;;;;7.28;4.47;;;;;;;15.06;46.51;100193.22;5090694;28;20032;-82
2022/10/08 00:59:11;;;;;;;4.75;4.22;;;;;;;14.94;46.30;100170.81;5090510;28;20046;-81
2022/10/08 01:01:39;;;;;;;5.63;4.78;;;;;;;14.72;46.55;100121.31;5091591;28;20051;-82
2022/10/08 01:04:06;;;;;;;5.15;3.83;;;;;;;15.07;46.70;100175.44;5091883;28;20536;-82
2022/10/08 01:07:09;;;;;;;5.97;4.20;;;;;;;15.18;46.34;100183.72;5091790;28;20024;-81
2022/10/08 01:09:45;;;;;;;7.93;4.60;;;;;;;15.08;46.35;100155.81;5091814;28;20055;-81
2022/10/08 01:12:21;;;;;;;7.95;4.15;;;;;;;15.26;46.50;100183.56;5092032;28;20023;-82
2022/10/08 01:14:59;;;;;;;6.28;4.18;;;;;;;15.28;46.65;100178.06;5091802;28;20039;-82
2022/10/08 01:17:36;;;;;;;5.72;4.35;;;;;;;14.37;46.62;100036.13;5090446;28;20521;-82
2022/10/08 01:20:14;;;;;;;7.43;4.57;;;;;;;15.26;46.60;100172.94;5092244;28;20012;-82
2022/10/08 01:23:01;;;;;;;6.82;4.57;;;;;;;15.34;46.57;100171.16;5091650;28;20020;-82
2022/10/08 01:25:56;;;;;;;8.35;4.65;;;;;;;15.34;46.58;100171.97;5090284;28;20020;-80
2022/10/08 01:28:38;;;;;;;5.43;4.32;;;;;;;14.94;46.33;100107.00;5091612;28;20016;-80
2022/10/08 01:31:09;;;;;;;6.75;4.40;;;;;;;15.38;46.18;100169.75;5091524;28;20458;-81
2022/10/08 01:33:49;;;;;;;7.15;4.57;;;;;;;15.23;46.47;100177.81;5091570;28;20476;-82
2022/10/08 01:36:17;;;;;;;9.32;5.28;;;;;;;15.09;45.96;100114.91;5090358;28;20036;-82
2022/10/08 01:38:50;;;;;;;5.50;4.30;;;;;;;15.47;46.44;100174.72;5091510;28;20078;-82
2022/10/08 01:41:17;;;;;;;6.90;4.43;;;;;;;15.32;45.91;100141.25;5091586;28;20117;-82
2022/10/08 01:43:50;;;;;;;6.05;4.28;;;;;;;15.38;45.59;100141.28;5092780;28;20492;-82
2022/10/08 01:46:25;;;;;;;7.93;4.43;;;;;;;14.78;45.81;100065.53;5095404;28;20412;-82
2022/10/08 01:48:55;;;;;;;5.45;4.03;;;;;;;15.62;45.91;100172.00;5095373;28;20024;-81
2022/10/08 01:51:31;;;;;;;6.60;4.18;;;;;;;15.49;45.81;100163.88;5095408;28;20024;-81
2022/10/08 01:53:56;;;;;;;8.38;4.70;;;;;;;15.05;45.64;100074.56;5095448;28;20020;-82
2022/10/08 01:56:24;;;;;;;6.28;4.63;;;;;;;15.65;45.34;100160.16;5095400;28;20024;-81
2022/10/08 01:58:54;;;;;;;9.27;4.95;;;;;;;15.20;45.24;100088.59;5093933;28;20043;-82
2022/10/08 02:01:33;;;;;;;7.05;4.47;;;;;;;15.02;45.27;100035.06;5095123;28;20071;-82
2022/10/08 02:06:50;;;;;;;5.30;4.40;;;;;;;15.37;45.22;100077.63;5095267;28;20050;-82
2022/10/08 02:09:15;;;;;;;6.57;3.72;;;;;;;15.44;44.73;100092.63;5095289;28;20020;-82
2022/10/08 02:11:41;;;;;;;6.30;3.92;;;;;;;15.70;45.15;100134.59;5093664;28;20016;-82
2022/10/08 02:14:06;;;;;;;5.13;3.75;;;;;;;15.12;44.98;100032.88;5093667;28;20107;-82
2022/10/08 02:16:37;;;;;;;7.32;3.80;;;;;;;15.74;44.67;100130.50;5093634;28;20404;-82
2022/10/08 02:19:13;;;;;;;4.70;3.92;;;;;;;15.78;44.95;100160.22;5095011;28;20016;-82
2022/10/08 02:21:41;;;;;;;6.72;3.90;;;;;;;15.81;44.97;100150.00;5094926;28;20496;-82
2022/10/08 02:24:06;;;;;;;7.72;4.57;;;;;;;16.06;44.50;100160.97;5094985;28;20016;-81
2022/10/08 02:26:36;;;;;;;5.93;4.00;;;;;;;15.83;44.35;100129.31;5093612;28;20386;-82
2022/10/08 02:29:12;;;;;;;7.43;4.00;;;;;;;16.19;44.49;100187.66;5094835;28;20028;-82
2022/10/08 02:31:48;;;;;;;6.60;4.18;;;;;;;16.16;44.21;100157.94;5094748;28;20107;-82
2022/10/08 02:34:20;;;;;;;5.50;3.70;;;;;;;16.19;44.33;100155.69;5094787;28;20028;-83
2022/10/08 02:36:52;;;;;;;5.40;3.97;;;;;;;15.50;44.23;100053.75;5093453;28;20024;-80
2022/10/08 02:39:19;;;;;;;5.03;3.85;;;;;;;16.21;44.28;100158.97;5093507;28;20016;-82
2022/10/08 02:41:49;;;;;;;6.00;3.75;;;;;;;16.19;44.38;100165.53;5094635;28;20102;-82
2022/10/08 02:44:22;;;;;;;4.05;3.30;;;;;;;16.21;44.39;100164.31;5093551;28;20024;-82
2022/10/08 02:46:51;;;;;;;5.03;3.50;;;;;;;16.21;44.23;100160.81;5094536;28;20027;-83
2022/10/08 02:49:23;;;;;;;6.72;3.88;;;;;;;16.15;44.18;100162.44;5094367;28;20501;-81
2022/10/08 02:51:52;;;;;;;8.25;3.90;;;;;;;16.17;44.06;100163.06;5093331;28;20069;-82
2022/10/08 02:54:19;;;;;;;5.85;3.20;;;;;;;15.70;44.04;100093.81;5094248;28;20074;-82
2022/10/08 02:56:55;;;;;;;7.50;3.53;;;;;;;15.53;44.36;100064.81;5094314;28;20447;-82
2022/10/08 02:59:22;;;;;;;6.65;4.18;;;;;;;16.26;44.15;100166.38;5092946;28;20471;-82
2022/10/08 03:01:59;;;;;;;5.35;3.50;;;;;;;16.02;44.08;100109.13;5094118;28;20048;-82
2022/10/08 03:04:33;;;;;;;6.15;3.70;;;;;;;16.33;44.08;100153.06;5092793;28;20031;-82
2022/10/08 03:06:59;;;;;;;8.90;3.47;;;;;;;16.04;43.85;100104.41;5094093;28;20022;-82
2022/10/08 03:09:31;;;;;;;3.95;3.00;;;;;;;16.14;43.69;100125.34;5092822;28;20115;-80
2022/10/08 03:11:56;;;;;;;5.30;3.60;;;;;;;16.32;43.92;100146.94;5094456;28;20073;-80
2022/10/08 03:14:23;;;;;;;4.70;3.45;;;;;;;16.37;43.78;100157.00;5093984;28;20031;-82
2022/10/08 03:16:49;;;;;;;4.28;3.28;;;;;;;15.84;43.75;100061.72;5094209;28;20441;-82
2022/10/08 03:19:17;;;;;;;3.83;3.20;;;;;;;16.43;43.85;100150.88;5094612;28;20048;-82
2022/10/08 03:21:44;;;;;;;6.20;3.70;;;;;;;16.26;44.04;100125.59;5117585;28;20040;-82
2022/10/08 03:24:12;;;;;;;4.75;4.03;;;;;;;16.46;44.00;100155.81;5117026;28;20111;-82
2022/10/08 03:26:38;;;;;;;5.97;3.67;;;;;;;16.47;43.84;100155.59;5097542;28;20024;-82
2022/10/08 03:29:04;;;;;;;3.42;3.10;;;;;;;16.21;43.93;100118.19;5094149;28;20507;-82
2022/10/08 03:31:29;;;;;;;3.70;3.13;;;;;;;16.44;44.01;100141.88;5092258;28;20028;-82
2022/10/08 03:33:56;;;;;;;5.43;3.15;;;;;;;16.07;43.44;100092.53;5092198;28;20028;-81
2022/10/08 03:36:23;;;;;;;4.90;3.28;;;;;;;15.29;43.70;99955.41;5093675;28;20054;-82
2022/10/08 03:38:48;;;;;;;5.50;3.20;;;;;;;15.99;43.59;100076.75;5093338;28;20016;-82
2022/10/08 03:41:15;;;;;;;4.85;3.55;;;;;;;16.45;43.88;100141.66;5093400;28;20404;-82
2022/10/08 03:43:41;;;;;;;4.97;3.33;;;;;;;16.00;43.81;100067.72;5093593;28;20020;-82
2022/10/08 03:46:07;;;;;;;7.00;3.38;;;;;;;16.46;43.56;100137.16;5092258;28;20038;-81
2022/10/08 03:48:33;;;;;;;7.78;3.88;;;;;;;15.55;43.90;100003.41;5092259;28;20024;-82
2022/10/08 03:51:01;;;;;;;3.53;3.20;;;;;;;16.26;43.63;100118.41;5100711;28;20030;-82
2022/10/08 03:53:30;;;;;;;3.67;3.35;;;;;;;16.24;43.84;100104.47;5118353;28;20037;-81
2022/10/08 03:56:00;;;;;;;5.30;3.63;;;;;;;16.08;44.08;100075.53;5101951;28;20413;-81
2022/10/08 03:58:26;;;;;;;6.53;3.45;;;;;;;16.50;43.64;100141.88;5093063;28;20107;-80
2022/10/08 04:01:03;;;;;;;4.60;4.10;;;;;;;16.51;44.12;100137.38;5092902;28;20068;-82
2022/10/08 04:03:30;;;;;;;4.28;3.88;;;;;;;16.47;43.84;100128.94;5092937;28;20020;-81
2022/10/08 04:05:56;;;;;;;4.82;3.63;;;;;;;16.14;44.08;100085.38;5092275;28;20411;-80
2022/10/08 04:08:22;;;;;;;5.85;3.50;;;;;;;16.44;44.29;100128.53;5092857;28;20027;-81
2022/10/08 04:10:47;;;;;;;5.47;4.10;;;;;;;16.11;44.31;100097.25;5092870;28;20016;-82
2022/10/08 04:13:16;;;;;;;5.65;3.97;;;;;;;16.28;44.10;100121.69;5091392;28;20056;-82
2022/10/08 04:15:43;;;;;;;6.95;4.30;;;;;;;15.75;44.32;100032.81;5091317;28;20054;-80
2022/10/08 04:18:11;;;;;;;5.25;3.85;;;;;;;16.33;44.32;100123.75;5091276;28;20027;-81
2022/10/08 04:20:38;;;;;;;5.22;3.83;;;;;;;15.99;44.57;100061.56;5092572;28;20077;-81
2022/10/08 04:23:05;;;;;;;5.85;3.80;;;;;;;15.56;44.86;99987.25;5092712;28;20024;-82
2022/10/08 04:25:30;;;;;;;5.35;3.83;;;;;;;16.37;44.45;100125.03;5091307;28;20020;-82
2022/10/08 04:27:56;;;;;;;5.70;3.80;;;;;;;16.13;44.62;100087.22;5092643;28;20081;-82
2022/10/08 04:30:23;;;;;;;7.00;3.90;;;;;;;15.86;44.94;100041.06;5092498;28;20081;-82
2022/10/08 04:32:48;;;;;;;4.88;4.13;;;;;;;15.91;44.89;100043.13;5092181;28;20740;-81
2022/10/08 04:35:13;;;;;;;5.13;3.45;;;;;;;15.19;44.89;99953.13;5092327;28;20096;-81
2022/10/08 04:37:39;;;;;;;5.95;3.60;;;;;;;16.14;44.98;100077.41;5092258;28;20020;-80
2022/10/08 04:40:05;;;;;;;4.63;3.60;;;;;;;16.10;45.04;100081.47;5092165;28;20024;-81
2022/10/08 04:42:30;;;;;;;5.28;3.78;;;;;;;15.94;45.36;100039.22;5092143;28;20031;-81
2022/10/08 04:44:55;;;;;;;12.38;4.38;;;;;;;16.07;44.90;100057.91;5090931;28;20113;-80
2022/10/08 04:47:21;;;;;;;5.68;4.25;;;;;;;16.43;45.10;100134.88;5090874;28;20496;-81
2022/10/08 04:49:46;;;;;;;7.35;4.20;;;;;;;15.92;44.94;100025.28;5092311;28;20020;-82
2022/10/08 04:52:12;;;;;;;6.13;4.20;;;;;;;16.44;45.16;100124.03;5092048;28;20403;-82
2022/10/08 04:54:38;;;;;;;7.57;4.57;;;;;;;16.08;44.96;100072.88;5091997;28;20016;-82
2022/10/08 04:57:03;;;;;;;5.05;4.45;;;;;;;14.43;45.29;99814.91;5092015;28;20485;-81
2022/10/08 04:59:29;;;;;;;9.13;4.90;;;;;;;16.18;45.31;100098.09;5091929;28;20019;-82
2022/10/08 05:01:55;;;;;;;7.75;4.78;;;;;;;15.88;45.42;100055.00;5091742;28;20421;-82
2022/10/08 05:04:22;;;;;;;8.63;5.07;;;;;;;15.79;45.74;100052.69;5091966;28;20027;-81
2022/10/08 05:06:47;;;;;;;8.07;5.53;;;;;;;15.97;45.20;100076.13;5091904;28;20020;-82
2022/10/08 05:09:13;;;;;;;9.68;5.65;;;;;;;15.78;45.68;100051.06;5091832;28;20028;-82
2022/10/08 05:11:38;;;;;;;9.05;5.40;;;;;;;15.89;45.65;100085.94;5090772;28;20020;-82
2022/10/08 05:14:04;;;;;;;9.25;5.63;;;;;;;15.75;45.84;100078.91;5091637;28;20028;-82
2022/10/08 05:16:29;;;;;;;8.18;6.20;;;;;;;15.84;45.87;100099.00;5091626;28;20020;-82
2022/10/08 05:18:56;;;;;;;8.70;5.47;;;;;;;16.13;46.03;100158.34;5091664;28;20085;-82
2022/10/08 05:21:24;;;;;;;9.90;5.85;;;;;;;16.21;46.06;100152.84;5091616;28;20028;-82
2022/10/08 05:23:54;;;;;;;8.07;5.97;;;;;;;15.89;46.02;100103.75;5090632;28;20104;-82
2022/10/08 05:26:23;;;;;;;8.60;5.32;;;;;;;14.30;45.80;99846.66;5090500;28;20465;-82
2022/10/08 05:28:55;;;;;;;10.85;5.50;;;;;;;16.23;46.25;100153.47;5091369;28;20020;-82
2022/10/08 05:31:22;;;;;;;6.72;4.75;;;;;;;15.46;45.92;100029.38;5091419;28;20060;-82
2022/10/08 05:33:48;;;;;;;7.07;4.47;;;;;;;16.28;45.78;100164.34;5091726;28;20024;-81
2022/10/08 05:36:25;;;;;;;8.20;5.15;;;;;;;15.91;45.98;100117.69;5091462;28;20030;-82
2022/10/08 05:38:51;;;;;;;5.55;4.20;;;;;;;16.31;46.06;100161.28;5091436;28;20028;-82
2022/10/08 05:41:18;;;;;;;8.88;4.55;;;;;;;16.33;45.76;100169.88;5091565;28;20431;-82
2022/10/08 05:43:44;;;;;;;5.68;3.97;;;;;;;15.76;45.78;100058.44;5091618;28;20020;-81
2022/10/08 05:46:10;;;;;;;6.85;4.65;;;;;;;16.01;45.65;100115.47;5090732;28;20512;-82
2022/10/08 05:48:36;;;;;;;6.00;5.13;;;;;;;16.45;45.96;100173.66;5091276;28;20024;-82
2022/10/08 05:51:05;;;;;;;6.38;4.53;;;;;;;16.50;45.50;100181.03;5091175;28;20092;-82
2022/10/08 05:53:36;;;;;;;6.63;5.10;;;;;;;15.62;45.90;100025.63;5091294;28;20105;-82
2022/10/08 05:56:05;;;;;;;7.03;4.70;;;;;;;16.02;45.65;100098.47;5091232;28;20031;-81
2022/10/08 05:58:32;;;;;;;8.63;4.93;;;;;;;16.27;45.54;100136.03;5091205;28;20516;-82
2022/10/08 06:01:14;;;;;;;6.32;4.72;;;;;;;16.26;45.62;100129.06;5089874;28;20039;-82
2022/10/08 06:03:40;;;;;;;5.07;4.40;;;;;;;15.80;45.45;100059.66;5091322;28;20447;-82
2022/10/08 06:06:07;;;;;;;7.07;5.18;;;;;;;16.15;45.77;100125.16;5091142;28;20039;-81
2022/10/08 06:08:34;;;;;;;13.45;5.40;;;;;;;16.02;45.83;100124.28;5089839;28;20414;-82
2022/10/08 06:11:00;;;;;;;7.65;5.28;;;;;;;16.00;45.67;100121.00;5089880;28;20432;-82
2022/10/08 06:13:26;;;;;;;8.27;5.45;;;;;;;16.39;45.95;100179.78;5091404;28;20024;-82
2022/10/08 06:15:54;;;;;;;10.00;5.45;;;;;;;16.43;45.82;100181.03;5091161;28;20611;-82
2022/10/08 06:18:19;;;;;;;8.20;5.18;;;;;;;16.01;46.05;100114.66;5089768;28;20024;-80
2022/10/08 06:20:45;;;;;;;8.75;5.10;;;;;;;15.98;45.74;100101.72;5091139;28;20016;-82
2022/10/08 06:23:10;;;;;;;6.57;5.32;;;;;;;15.88;46.13;100086.94;5091212;28;20030;-82
2022/10/08 06:25:36;;;;;;;9.27;5.68;;;;;;;16.37;45.85;100163.16;5089859;28;20020;-82
2022/10/08 06:28:01;;;;;;;8.15;5.40;;;;;;;16.06;45.81;100109.53;5090834;28;20043;-82
2022/10/08 06:30:27;;;;;;;9.10;5.75;;;;;;;16.11;45.67;100129.22;5093324;28;20060;-81
2022/10/08 06:32:52;;;;;;;9.57;5.20;;;;;;;16.13;46.04;100102.41;5093547;28;20103;-82
2022/10/08 06:35:18;;;;;;;9.30;5.53;;;;;;;16.71;45.81;100194.25;5095031;28;20099;-81
2022/10/08 06:37:47;;;;;;;8.27;5.22;;;;;;;15.51;45.54;99984.34;5094645;28;20404;-81
2022/10/08 06:40:12;;;;;;;10.55;5.45;;;;;;;16.45;45.51;100131.00;5093600;28;20027;-80
2022/10/08 06:42:38;;;;;;;6.70;5.30;;;;;;;16.89;45.42;100190.19;5093569;28;20024;-82
2022/10/08 06:45:04;;;;;;;7.13;4.90;;;;;;;16.64;45.28;100158.72;5094929;28;20020;-82
2022/10/08 06:47:29;;;;;;;7.22;5.18;;;;;;;16.27;45.46;100076.59;5094604;28;20020;-82
2022/10/08 06:49:54;;;;;;;7.05;4.80;;;;;;;16.75;45.27;100158.16;5094534;28;20028;-82
2022/10/08 06:52:20;;;;;;;7.85;5.22;;;;;;;16.65;44.96;100141.72;5094181;28;20035;-82
2022/10/08 06:54:45;;;;;;;7.82;5.20;;;;;;;16.87;45.05;100158.38;5094396;28;20020;-81
2022/10/08 06:57:10;;;;;;;7.72;5.25;;;;;;;17.21;44.93;100193.91;5094582;28;20028;-81
2022/10/08 06:59:36;;;;;;;6.63;4.60;;;;;;;17.28;44.76;100184.88;5094447;28;20024;-81
2022/10/08 07:02:01;;;;;;;10.18;5.68;;;;;;;16.88;44.70;100122.66;5094045;28;20493;-82
2022/10/08 07:04:27;;;;;;;6.32;4.68;;;;;;;16.71;44.72;100092.09;5094072;28;20024;-81
2022/10/08 07:06:52;;;;;;;7.93;4.88;;;;;;;17.15;44.61;100158.22;5094233;28;20035;-81
2022/10/08 07:09:17;;;;;;;6.30;5.22;;;;;;;16.63;44.55;100073.59;5093056;28;20078;-82
2022/10/08 07:11:43;;;;;;;6.78;4.70;;;;;;;17.39;44.36;100208.28;5092934;28;20084;-81
2022/10/08 07:14:08;;;;;;;6.90;5.32;;;;;;;16.62;44.31;100071.97;5094536;28;20068;-82
2022/10/08 07:16:33;;;;;;;15.07;5.20;;;;;;;16.90;44.30;100085.94;5094226;28;20027;-82
2022/10/08 07:18:59;;;;;;;8.90;4.80;;;;;;;17.26;44.17;100146.91;5094182;28;20020;-81
2022/10/08 07:21:26;;;;;;;7.07;5.35;;;;;;;17.01;44.10;100096.00;5096831;28;20019;-82
2022/10/08 07:23:51;;;;;;;8.70;4.80;;;;;;;17.25;43.96;100118.56;5101819;28;20028;-81
2022/10/08 07:26:25;;;;;;;7.45;4.93;;;;;;;17.84;43.92;100203.16;5107388;28;20031;-81
2022/10/08 07:28:55;;;;;;;6.00;5.07;;;;;;;17.82;43.80;100199.84;5103164;28;20026;-81
2022/10/08 07:31:29;;;;;;;5.13;4.28;;;;;;;17.92;43.84;100196.75;5093047;28;20028;-81
2022/10/08 07:33:56;;;;;;;6.90;5.22;;;;;;;17.53;43.77;100126.31;5093801;28;20032;-81
2022/10/08 07:36:23;;;;;;;10.80;5.75;;;;;;;18.11;43.51;100195.88;5093667;28;20032;-81
2022/10/08 07:38:53;;;;;;;6.55;5.40;;;;;;;18.19;43.39;100192.16;5093567;28;20493;-81
2022/10/08 07:41:18;;;;;;;7.63;6.13;;;;;;;18.04;43.18;100171.03;5092688;28;20038;-81
2022/10/08 07:43:49;;;;;;;9.48;4.65;;;;;;;18.12;42.93;100151.25;5094048;28;20028;-82
2022/10/08 07:46:14;;;;;;;10.30;7.07;;;;;;;17.89;42.75;100103.69;5094105;28;20039;-81
2022/10/08 07:48:39;;;;;;;5.88;4.38;;;;;;;18.34;42.64;100174.81;5092240;28;20408;-81
2022/10/08 07:51:11;;;;;;;7.78;4.32;;;;;;;18.38;42.36;100153.81;5092425;28;20028;-82
2022/10/08 07:53:37;;;;;;;5.70;4.38;;;;;;;18.37;42.32;100134.28;5093264;28;20035;-82
2022/10/08 07:56:03;;;;;;;7.25;5.05;;;;;;;18.48;42.56;100150.66;5109081;28;20023;-81
2022/10/08 07:58:29;;;;;;;5.82;4.10;;;;;;;18.45;42.32;100143.06;5114953;28;20077;-82
2022/10/08 08:00:59;;;;;;;7.85;4.45;;;;;;;18.12;42.08;100116.53;5098615;28;20143;-81
2022/10/08 08:03:25;;;;;;;5.30;4.40;;;;;;;18.39;42.09;100124.19;5093004;28;20116;-81
2022/10/08 08:05:52;;;;;;;5.95;4.53;;;;;;;18.88;41.82;100188.75;5093622;28;20109;-81
2022/10/08 08:08:24;;;;;;;6.05;4.10;;;;;;;18.52;41.79;100107.25;5092199;28;20032;-81
2022/10/08 08:11:01;;;;;;;5.03;4.07;;;;;;;19.08;41.73;100192.09;5091553;28;20039;-81
2022/10/08 08:13:31;;;;;;;8.60;4.00;;;;;;;19.14;41.58;100183.19;5091467;28;20024;-81
2022/10/08 08:15:58;;;;;;;6.13;4.25;;;;;;;18.96;41.42;100146.47;5092730;28;20035;-81
2022/10/08 08:18:26;;;;;;;11.75;4.28;;;;;;;18.81;41.44;100126.44;5092548;28;20077;-81
2022/10/08 08:21:06;;;;;;;4.25;3.50;;;;;;;19.39;41.01;100188.56;5091215;28;20028;-81
2022/10/08 08:23:36;;;;;;;5.55;3.90;;;;;;;19.22;40.92;100137.41;5092506;28;20085;-81
2022/10/08 08:26:08;;;;;;;5.57;3.80;;;;;;;19.26;40.75;100133.25;5091295;28;20520;-81
2022/10/08 08:28:33;;;;;;;5.97;3.60;;;;;;;19.59;40.62;100173.16;5091190;28;20497;-81
2022/10/08 08:31:14;;;;;;;4.68;3.30;;;;;;;19.32;40.43;100115.50;5091090;28;20065;-81
2022/10/08 08:33:41;;;;;;;5.20;4.10;;;;;;;19.24;40.20;100075.63;5092703;28;20455;-82
2022/10/08 08:36:06;;;;;;;4.63;3.50;;;;;;;19.30;39.84;100077.41;5091089;28;20488;-80
2022/10/08 08:38:38;;;;;;;4.63;3.67;;;;;;;19.78;39.82;100149.06;5092439;28;20027;-81
2022/10/08 08:41:11;;;;;;;;;;;;;;;19.70;40.37;100162.75;5092454;28;20024;-82
2022/10/08 08:43:36;;;;;;;7.13;4.28;;;;;;;19.88;39.94;100174.31;5092453;28;19912;-81
2022/10/08 08:46:02;;;;;;;4.95;4.43;;;;;;;19.74;39.63;100121.06;5092198;28;20024;-81
2022/10/08 08:48:32;;;;;;;5.80;3.30;;;;;;;19.71;39.78;100076.81;5090903;28;20469;-82
2022/10/08 08:50:59;;;;;;;7.57;4.18;;;;;;;19.70;39.27;100072.47;5092344;28;20032;-82
2022/10/08 08:53:26;;;;;;;6.75;4.32;;;;;;;20.16;39.39;100133.56;5091797;28;20504;-80
2022/10/08 08:55:55;;;;;;;6.40;3.92;;;;;;;20.25;39.38;100137.59;5092334;28;20024;-80
2022/10/08 08:58:42;;;;;;;8.15;3.83;;;;;;;20.39;39.23;100140.06;5091093;28;20036;-80
2022/10/08 09:01:07;;;;;;;4.10;3.70;;;;;;;20.52;38.73;100121.97;5092157;28;20048;-80
2022/10/08 09:03:49;;;;;;;4.88;3.38;;;;;;;20.67;38.58;100134.13;5091764;28;20028;-81
2022/10/08 09:06:18;;;;;;;5.70;2.88;;;;;;;20.79;38.07;100125.06;5091840;28;20044;-81
2022/10/08 09:08:55;;;;;;;5.78;3.60;;;;;;;20.33;38.08;100031.03;5091706;28;20035;-81
2022/10/08 09:11:22;;;;;;;4.53;3.67;;;;;;;20.99;37.83;100113.22;5091591;28;20111;-81
2022/10/08 09:13:57;;;;;;;5.15;3.35;;;;;;;20.87;37.16;100100.59;5091549;28;20062;-81
2022/10/08 09:16:22;;;;;;;5.55;3.60;;;;;;;21.01;37.55;100108.44;5091790;28;20047;-82
2022/10/08 09:18:50;;;;;;;4.47;3.78;;;;;;;21.16;37.01;100114.16;5091740;28;20427;-81
2022/10/08 09:21:16;;;;;;;5.47;4.22;;;;;;;21.36;37.10;100093.16;5091927;28;20466;-80
2022/10/08 09:23:42;;;;;;;5.43;3.53;;;;;;;20.45;37.04;99924.63;5091671;28;20028;-81
2022/10/08 09:26:22;;;;;;;4.97;4.45;;;;;;;21.75;36.36;100091.59;5091694;28;20484;-79
2022/10/08 09:28:56;;;;;;;5.25;3.88;;;;;;;21.72;36.20;100070.56;5089613;28;20024;-82
2022/10/08 09:31:31;;;;;;;4.47;3.42;;;;;;;21.89;36.03;100086.78;5089875;28;20028;-82
2022/10/08 09:34:08;;;;;;;7.60;5.47;;;;;;;22.04;35.53;100080.91;5091269;28;20027;-81
2022/10/08 09:36:36;;;;;;;10.27;3.88;;;;;;;22.12;35.46;100075.13;5091232;28;20073;-81
2022/10/08 09:39:06;;;;;;;7.90;4.25;;;;;;;22.20;35.47;100075.56;5091176;28;20028;-81
2022/10/08 09:41:32;;;;;;;5.47;3.63;;;;;;;21.78;35.14;99988.97;5090122;28;20455;-81
2022/10/08 09:44:11;;;;;;;6.75;3.30;;;;;;;22.46;34.12;100073.34;5091623;28;20028;-82
2022/10/08 09:46:36;;;;;;;4.80;3.38;;;;;;;22.36;34.82;100051.66;5091625;28;20062;-82
2022/10/08 09:49:26;;;;;;;6.05;3.22;;;;;;;22.64;34.41;100066.94;5091213;28;20503;-81
2022/10/08 09:51:54;;;;;;;4.95;3.17;;;;;;;21.27;34.11;99842.09;5091331;28;20107;-82
2022/10/08 09:54:24;;;;;;;5.03;3.40;;;;;;;22.63;34.03;100016.84;5090266;28;20123;-82
2022/10/08 09:56:53;;;;;;;4.97;3.25;;;;;;;23.09;33.72;100059.63;5091734;28;20036;-81
2022/10/08 09:59:21;;;;;;;4.28;3.33;;;;;;;22.60;33.52;99937.41;5090255;28;20024;-81
2022/10/08 10:01:47;;;;;;;6.38;3.25;;;;;;;22.99;33.21;100015.53;5090116;28;20114;-81
2022/10/08 10:04:39;;;;;;;3.90;2.95;;;;;;;23.39;32.63;100043.03;5091974;28;20032;-81
2022/10/08 10:07:05;;;;;;;4.63;2.90;;;;;;;23.03;33.23;99978.97;5094241;28;20028;-81
2022/10/08 10:09:47;;;;;;;4.00;3.28;;;;;;;23.51;31.33;100012.47;5093771;28;20430;-80
2022/10/08 10:12:19;;;;;;;3.92;2.88;;;;;;;23.64;32.06;100034.50;5095273;28;20024;-81
2022/10/08 10:14:50;;;;;;;5.25;3.10;;;;;;;23.75;31.88;100030.84;5095430;28;20074;-81
2022/10/08 10:17:51;;;;;;;4.68;3.05;;;;;;;23.82;31.47;100022.59;5093892;28;20040;-81
2022/10/08 10:20:26;;;;;;;3.10;2.50;;;;;;;23.38;31.86;99927.41;5093910;28;20023;-81
2022/10/08 10:22:55;;;;;;;5.03;3.10;;;;;;;23.54;31.41;99933.78;5095130;28;20488;-81
2022/10/08 10:25:46;;;;;;;3.13;2.35;;;;;;;24.30;31.57;100007.44;5095000;28;20024;-81
2022/10/08 10:28:25;;;;;;;4.25;3.17;;;;;;;24.25;31.39;100005.47;5095170;28;20150;-81
2022/10/08 10:31:05;;;;;;;2.80;2.50;;;;;;;23.68;31.50;99919.69;5094788;28;20024;-81
2022/10/08 10:33:41;;;;;;;3.42;2.67;;;;;;;24.37;31.23;99997.25;5094873;28;20030;-80
2022/10/08 10:36:12;;;;;;;7.18;3.25;;;;;;;23.88;31.48;99940.66;5094716;28;20020;-80
2022/10/08 10:38:49;;;;;;;2.95;2.67;;;;;;;24.21;31.10;99957.69;5094844;28;20496;-82
2022/10/08 10:41:38;;;;;;;2.90;2.60;;;;;;;24.55;30.97;99986.06;5093601;28;20020;-80
2022/10/08 10:44:09;;;;;;;4.40;2.53;;;;;;;24.50;30.72;99942.00;5094582;28;20101;-80
2022/10/08 10:46:48;;;;;;;4.82;2.80;;;;;;;24.85;30.64;99976.53;5094881;28;20020;-81
2022/10/08 10:49:17;;;;;;;4.35;2.78;;;;;;;25.00;30.60;99998.28;5093409;28;20056;-81
2022/10/08 10:51:57;;;;;;;4.38;2.47;;;;;;;25.12;30.14;99961.03;5094494;28;20493;-80
2022/10/08 10:54:25;;;;;;;4.88;2.90;;;;;;;25.24;30.23;99950.00;5093166;28;20419;-80
2022/10/08 10:56:56;;;;;;;4.68;3.22;;;;;;;24.97;29.97;99915.84;5093215;28;20020;-81
2022/10/08 10:59:33;;;;;;;;;;;;;;;25.35;29.86;99940.91;5093662;28;20107;-81
2022/10/08 11:02:15;;;;;;;5.65;2.88;;;;;;;25.53;29.52;99942.31;5093071;28;20007;-80
2022/10/08 11:04:40;;;;;;;;;;;;;;;25.55;29.32;99946.34;5093514;28;20548;-80
2022/10/08 11:07:29;;;;;;;5.55;3.50;;;;;;;24.86;28.95;99825.03;5092982;28;19908;-81
2022/10/08 11:10:02;;;;;;;5.82;2.72;;;;;;;25.51;29.41;99936.34;5094206;28;20031;-81
2022/10/08 11:12:36;;;;;;;2.65;2.45;;;;;;;25.54;29.73;99933.91;5093008;28;20026;-80
2022/10/08 11:15:10;;;;;;;4.50;2.67;;;;;;;25.59;29.24;99919.59;5094023;28;20455;-81
2022/10/08 11:18:06;;;;;;;3.00;2.50;;;;;;;25.52;29.09;99921.75;5094061;28;20031;-81
2022/10/08 11:20:42;;;;;;;4.55;2.60;;;;;;;25.44;28.83;99917.69;5094526;28;20028;-82
2022/10/08 11:23:26;;;;;;;3.30;2.28;;;;;;;25.49;29.28;99919.56;5101927;28;20020;-80
2022/10/08 11:26:01;;;;;;;3.85;2.63;;;;;;;25.48;28.94;99917.94;5108331;28;20016;-79
2022/10/08 11:28:32;;;;;;;2.75;2.42;;;;;;;25.45;29.33;99913.88;5113429;28;20043;-80
2022/10/08 11:31:01;;;;;;;;;;;;;;;25.39;29.23;99908.75;5112504;28;20024;-79
2022/10/08 11:33:27;;;;;;;3.88;2.42;;;;;;;25.22;29.33;99884.59;5098270;28;19908;-80
2022/10/08 11:36:20;;;;;;;4.63;2.20;;;;;;;24.99;28.55;99864.28;5092455;28;20403;-81
2022/10/08 11:38:48;;;;;;;11.57;2.85;;;;;;;25.07;29.05;99893.47;5093759;28;20054;-81
2022/10/08 11:41:28;;;;;;;3.75;2.20;;;;;;;24.21;28.63;99783.09;5092604;28;20020;-81
2022/10/08 11:44:00;;;;;;;6.50;2.55;;;;;;;23.91;29.17;99729.78;5092299;28;20016;-81